createdAt,value
2022-10-25T00:01:58.719Z,100219.14
2022-10-25T00:05:06.026Z,100216.94
2022-10-25T00:08:13.183Z,100220.51
2022-10-25T00:11:23.959Z,100224.94
2022-10-25T00:14:30.531Z,100222.84
2022-10-25T00:17:37.453Z,100221.35
2022-10-25T00:20:46.807Z,100226.58
2022-10-25T00:23:54.424Z,100226.36
2022-10-25T00:27:00.963Z,100226.61
2022-10-25T00:30:10.307Z,100228.17
2022-10-25T00:33:16.800Z,100224.60
2022-10-25T00:36:25.551Z,100225.64
2022-10-25T00:39:32.492Z,100226.05
2022-10-25T00:42:39.239Z,100230.24
2022-10-25T00:45:45.957Z,100230.41
2022-10-25T00:48:56.421Z,100225.06
2022-10-25T00:52:06.519Z,100226.95
2022-10-25T00:55:17.511Z,100233.24
2022-10-25T00:58:27.596Z,100227.59
2022-10-25T01:01:34.828Z,100223.05
2022-10-25T01:04:41.709Z,100218.30
2022-10-25T01:07:48.840Z,100219.45
2022-10-25T01:10:55.591Z,100217.45
2022-10-25T01:14:02.320Z,100218.95
2022-10-25T01:17:15.169Z,100222.12
2022-10-25T01:21:12.377Z,100220.83
2022-10-25T01:24:44.995Z,100218.83
2022-10-25T01:28:01.528Z,100219.94
2022-10-25T01:31:35.114Z,100217.35
2022-10-25T01:34:48.193Z,100213.00
2022-10-25T01:38:06.729Z,100212.63
2022-10-25T01:41:20.925Z,100208.59
2022-10-25T01:44:38.230Z,100210.06
2022-10-25T01:49:27.667Z,100212.86
2022-10-25T01:52:34.309Z,100218.41
2022-10-25T01:55:47.393Z,100220.16
2022-10-25T01:59:09.340Z,100221.54
2022-10-25T02:02:27.382Z,100213.54
2022-10-25T02:05:39.673Z,100215.25
2022-10-25T02:08:55.534Z,100217.66
2022-10-25T02:12:03.789Z,100219.90
2022-10-25T02:15:15.340Z,100221.27
2022-10-25T02:18:25.463Z,100223.34
2022-10-25T02:21:34.983Z,100228.94
2022-10-25T02:24:45.638Z,100227.41
2022-10-25T02:27:55.878Z,100229.49
2022-10-25T02:31:02.990Z,100231.23
2022-10-25T02:34:09.675Z,100233.02
2022-10-25T02:37:16.388Z,100231.30
2022-10-25T02:40:23.454Z,100231.27
2022-10-25T02:43:35.888Z,100226.34
2022-10-25T02:46:42.585Z,100217.17
2022-10-25T02:49:49.087Z,100211.59
2022-10-25T02:52:55.697Z,100210.85
2022-10-25T02:56:08.032Z,100208.53
2022-10-25T02:59:15.526Z,100214.23
2022-10-25T03:02:22.170Z,100212.42
2022-10-25T03:05:28.863Z,100214.78
2022-10-25T03:08:35.975Z,100217.74
2022-10-25T03:11:42.797Z,100221.15
2022-10-25T03:14:49.435Z,100222.95
2022-10-25T03:17:57.377Z,100225.55
2022-10-25T03:21:05.595Z,100229.64
2022-10-25T03:24:12.263Z,100226.46
2022-10-25T03:27:18.914Z,100227.00
2022-10-25T03:30:27.899Z,100227.83
2022-10-25T03:33:34.532Z,100226.72
2022-10-25T03:36:41.166Z,100226.67
2022-10-25T03:39:47.978Z,100229.57
2022-10-25T03:42:55.849Z,100230.30
2022-10-25T03:46:02.669Z,100232.89
2022-10-25T03:49:09.931Z,100232.52
2022-10-25T03:52:16.635Z,100230.97
2022-10-25T03:55:23.355Z,100227.79
2022-10-25T03:58:30.022Z,100225.80
2022-10-25T04:01:36.874Z,100224.56
2022-10-25T04:04:43.752Z,100223.96
2022-10-25T04:07:50.552Z,100223.02
2022-10-25T04:10:57.298Z,100222.41
2022-10-25T04:14:03.963Z,100219.55
2022-10-25T04:17:10.591Z,100217.84
2022-10-25T04:20:17.587Z,100223.24
2022-10-25T04:23:24.274Z,100225.66
2022-10-25T04:26:30.956Z,100225.69
2022-10-25T04:29:37.639Z,100221.73
2022-10-25T04:32:44.557Z,100223.27
2022-10-25T04:35:57.492Z,100222.83
2022-10-25T04:39:06.751Z,100217.98
2022-10-25T04:42:13.440Z,100223.33
2022-10-25T04:45:20.209Z,100225.12
2022-10-25T04:48:27.005Z,100228.15
2022-10-25T04:51:34.377Z,100224.33
2022-10-25T04:54:41.586Z,100221.98
2022-10-25T04:57:48.132Z,100223.40
2022-10-25T05:00:55.891Z,100225.56
2022-10-25T05:04:02.643Z,100228.32
2022-10-25T05:07:09.289Z,100221.91
2022-10-25T05:10:16.136Z,100222.08
2022-10-25T05:13:22.762Z,100222.60
2022-10-25T05:16:29.434Z,100225.42
2022-10-25T05:19:36.132Z,100223.70
2022-10-25T05:22:42.964Z,100221.45
2022-10-25T05:25:49.633Z,100223.56
2022-10-25T05:28:57.083Z,100229.98
2022-10-25T05:32:04.095Z,100237.85
2022-10-25T05:35:11.097Z,100240.35
2022-10-25T05:38:17.768Z,100249.36
2022-10-25T05:41:24.486Z,100246.57
2022-10-25T05:44:31.110Z,100244.11
2022-10-25T05:47:37.621Z,100244.17
2022-10-25T05:50:44.596Z,100247.41
2022-10-25T05:53:53.047Z,100251.06
2022-10-25T05:56:59.584Z,100256.27
2022-10-25T06:00:07.738Z,100260.84
2022-10-25T06:03:14.475Z,100266.81
2022-10-25T06:06:22.738Z,100264.36
2022-10-25T06:09:29.536Z,100266.46
2022-10-25T06:12:36.364Z,100270.63
2022-10-25T06:15:43.029Z,100275.54
2022-10-25T06:18:50.025Z,100275.59
2022-10-25T06:21:57.785Z,100281.27
2022-10-25T06:25:04.767Z,100295.18
2022-10-25T06:28:11.488Z,100298.00
2022-10-25T06:31:20.262Z,100295.38
2022-10-25T06:34:26.873Z,100296.12
2022-10-25T06:37:33.401Z,100299.71
2022-10-25T06:40:40.075Z,100296.28
2022-10-25T06:43:46.927Z,100299.29
2022-10-25T06:47:15.755Z,100307.15
2022-10-25T06:50:20.222Z,100311.31
2022-10-25T06:53:27.135Z,100320.30
2022-10-25T06:56:34.001Z,100324.73
2022-10-25T06:59:40.643Z,100328.09
2022-10-25T07:02:56.842Z,100322.80
2022-10-25T07:06:06.227Z,100329.16
2022-10-25T07:09:12.623Z,100327.33
2022-10-25T07:12:19.331Z,100325.47
2022-10-25T07:15:26.092Z,100330.31
2022-10-25T07:18:32.750Z,100328.38
2022-10-25T07:21:39.460Z,100331.52
2022-10-25T07:24:46.086Z,100336.56
2022-10-25T07:27:52.861Z,100335.05
2022-10-25T07:30:59.468Z,100341.90
2022-10-25T07:34:06.684Z,100342.44
2022-10-25T07:37:13.279Z,100339.11
2022-10-25T07:40:19.877Z,100343.70
2022-10-25T07:43:27.368Z,100348.18
2022-10-25T07:46:34.129Z,100346.84
2022-10-25T07:49:40.796Z,100340.58
2022-10-25T07:52:47.593Z,100345.50
2022-10-25T07:55:56.639Z,100352.62
2022-10-25T07:59:03.361Z,100348.85
2022-10-25T08:02:11.785Z,100354.36
2022-10-25T08:05:18.729Z,100353.20
2022-10-25T08:08:25.947Z,100357.42
2022-10-25T08:11:33.155Z,100358.36
2022-10-25T08:14:41.632Z,100362.38
2022-10-25T08:17:50.571Z,100365.65
2022-10-25T08:21:03.087Z,100354.52
2022-10-25T08:24:11.004Z,100349.28
2022-10-25T08:27:17.650Z,100349.08
2022-10-25T08:30:24.324Z,100350.73
2022-10-25T08:33:31.153Z,100359.89
2022-10-25T08:36:37.843Z,100366.90
2022-10-25T08:39:45.128Z,100372.77
2022-10-25T08:43:08.782Z,100367.08
2022-10-25T08:46:21.810Z,100370.67
2022-10-25T08:49:34.396Z,100370.64
2022-10-25T08:52:45.671Z,100371.53
2022-10-25T08:56:11.706Z,100374.39
2022-10-25T08:59:24.383Z,100374.25
2022-10-25T09:02:40.817Z,100374.54
2022-10-25T09:06:01.280Z,100368.48
2022-10-25T09:09:24.907Z,100370.69
2022-10-25T09:12:40.788Z,100370.37
2022-10-25T09:16:01.495Z,100370.71
2022-10-25T09:19:17.041Z,100375.23
2022-10-25T09:22:28.670Z,100372.96
2022-10-25T09:25:42.921Z,100380.11
2022-10-25T09:28:58.546Z,100385.95
2022-10-25T09:32:13.148Z,100389.89
2022-10-25T09:35:24.095Z,100388.27
2022-10-25T09:38:40.208Z,100390.28
2022-10-25T09:41:50.952Z,100388.03
2022-10-25T09:45:02.637Z,100395.68
2022-10-25T09:48:14.380Z,100396.19
2022-10-25T09:51:25.620Z,100396.86
2022-10-25T09:54:39.764Z,100399.13
2022-10-25T09:57:46.641Z,100397.17
2022-10-25T10:00:55.229Z,100396.02
2022-10-25T10:04:20.829Z,100399.48
2022-10-25T10:07:32.976Z,100402.73
2022-10-25T10:10:41.268Z,100396.86
2022-10-25T10:13:53.110Z,100396.94
2022-10-25T10:17:00.896Z,100401.79
2022-10-25T10:20:15.096Z,100402.08
2022-10-25T10:23:21.915Z,100402.88
2022-10-25T10:26:32.679Z,100401.52
2022-10-25T10:29:48.405Z,100404.52
2022-10-25T10:33:01.667Z,100405.50
2022-10-25T10:36:26.679Z,100398.50
2022-10-25T10:39:33.810Z,100399.84
2022-10-25T10:42:42.795Z,100396.98
2022-10-25T10:45:52.952Z,100401.92
2022-10-25T10:49:03.443Z,100395.73
2022-10-25T10:52:31.403Z,100395.48
2022-10-25T10:55:40.798Z,100401.80
2022-10-25T10:58:53.556Z,100400.77
2022-10-25T11:02:11.896Z,100405.23
2022-10-25T11:05:25.399Z,100414.19
2022-10-25T11:08:32.108Z,100422.77
2022-10-25T11:11:39.036Z,100417.65
2022-10-25T11:14:45.851Z,100415.29
2022-10-25T11:17:59.630Z,100413.50
2022-10-25T11:21:14.804Z,100415.70
2022-10-25T11:24:34.681Z,100414.89
2022-10-25T11:27:55.604Z,100413.98
2022-10-25T11:31:07.367Z,100415.13
2022-10-25T11:34:26.392Z,100415.45
2022-10-25T11:37:43.939Z,100418.62
2022-10-25T11:41:04.120Z,100418.27
2022-10-25T11:44:48.939Z,100422.26
2022-10-25T11:48:11.053Z,100425.71
2022-10-25T11:51:31.867Z,100429.30
2022-10-25T11:54:46.074Z,100430.42
2022-10-25T11:58:05.619Z,100433.67
2022-10-25T12:01:25.913Z,100430.40
2022-10-25T12:05:02.913Z,100430.62
2022-10-25T12:08:25.284Z,100429.48
2022-10-25T12:11:35.301Z,100427.66
2022-10-25T12:14:46.635Z,100429.41
2022-10-25T12:17:57.068Z,100427.33
2022-10-25T12:21:04.930Z,100430.77
2022-10-25T12:24:17.096Z,100431.27
2022-10-25T12:27:25.636Z,100428.34
2022-10-25T12:30:34.259Z,100429.21
2022-10-25T12:33:45.025Z,100434.61
2022-10-25T12:36:54.180Z,100433.16
2022-10-25T12:40:02.554Z,100431.90
2022-10-25T12:43:18.311Z,100432.55
2022-10-25T12:46:49.537Z,100431.45
2022-10-25T12:50:13.157Z,100435.02
2022-10-25T12:53:50.367Z,100438.02
2022-10-25T12:57:10.382Z,100444.60
2022-10-25T13:03:58.801Z,100441.66
2022-10-25T13:07:07.124Z,100446.39
2022-10-25T13:10:23.808Z,100446.86
2022-10-25T13:13:33.784Z,100446.34
2022-10-25T13:16:40.612Z,100447.11
2022-10-25T13:19:56.160Z,100455.73
2022-10-25T13:23:23.012Z,100462.79
2022-10-25T13:26:55.473Z,100459.66
2022-10-25T13:30:24.484Z,100462.58
2022-10-25T13:33:33.862Z,100459.78
2022-10-25T13:36:52.109Z,100458.66
2022-10-25T13:40:00.698Z,100460.98
2022-10-25T13:43:22.647Z,100463.08
2022-10-25T13:46:35.105Z,100463.30
2022-10-25T13:49:44.677Z,100460.04
2022-10-25T13:53:02.722Z,100464.16
2022-10-25T13:56:14.632Z,100470.95
2022-10-25T14:00:03.516Z,100473.21
2022-10-25T14:03:47.374Z,100472.39
2022-10-25T14:06:54.696Z,100475.27
2022-10-25T14:10:02.100Z,100476.40
2022-10-25T14:13:20.596Z,100478.66
2022-10-25T14:16:30.497Z,100482.56
2022-10-25T14:19:41.169Z,100477.67
2022-10-25T14:22:54.448Z,100486.98
2022-10-25T14:26:03.305Z,100489.31
2022-10-25T14:29:20.844Z,100477.88
2022-10-25T14:32:27.846Z,100477.19
2022-10-25T14:35:37.452Z,100479.26
2022-10-25T14:38:55.170Z,100478.83
2022-10-25T14:42:04.812Z,100485.14
2022-10-25T14:45:21.869Z,100485.04
2022-10-25T14:48:29.052Z,100493.56
2022-10-25T14:51:38.735Z,100488.20
2022-10-25T14:54:54.103Z,100485.33
2022-10-25T14:58:02.908Z,100489.16
2022-10-25T15:01:11.613Z,100496.72
2022-10-25T15:04:26.238Z,100501.48
2022-10-25T15:07:37.376Z,100502.98
2022-10-25T15:10:46.163Z,100500.04
2022-10-25T15:13:54.375Z,100498.55
2022-10-25T15:17:06.111Z,100503.41
2022-10-25T15:20:30.094Z,100503.09
2022-10-25T15:23:37.791Z,100500.48
2022-10-25T15:26:55.935Z,100502.98
2022-10-25T15:30:05.007Z,100499.65
2022-10-25T15:33:15.146Z,100505.36
2022-10-25T15:36:24.890Z,100505.62
2022-10-25T15:39:33.065Z,100510.21
2022-10-25T15:42:39.756Z,100503.72
2022-10-25T15:45:46.612Z,100506.27
2022-10-25T15:48:53.573Z,100509.05
2022-10-25T15:52:01.727Z,100513.48
2022-10-25T15:55:20.771Z,100523.23
2022-10-25T15:58:27.615Z,100524.93
2022-10-25T16:01:34.404Z,100525.48
2022-10-25T16:04:41.151Z,100526.02
2022-10-25T16:07:47.744Z,100526.67
2022-10-25T16:10:55.018Z,100527.58
2022-10-25T16:14:01.888Z,100527.60
2022-10-25T16:17:09.979Z,100530.10
2022-10-25T16:20:21.273Z,100533.35
2022-10-25T16:23:28.351Z,100532.88
2022-10-25T16:26:38.860Z,100539.31
2022-10-25T16:29:47.105Z,100538.98
2022-10-25T16:32:54.245Z,100540.84
2022-10-25T16:36:01.027Z,100544.84
2022-10-25T16:39:09.016Z,100549.03
2022-10-25T16:42:31.186Z,100549.05
2022-10-25T16:45:39.544Z,100550.89
2022-10-25T16:48:48.386Z,100554.37
2022-10-25T16:51:55.056Z,100554.35
2022-10-25T16:55:01.715Z,100556.50
2022-10-25T16:58:08.773Z,100557.91
2022-10-25T17:01:22.346Z,100561.11
2022-10-25T17:04:29.323Z,100564.73
2022-10-25T17:07:36.288Z,100565.51
2022-10-25T17:10:45.999Z,100564.58
2022-10-25T17:13:52.852Z,100565.02
2022-10-25T17:17:03.073Z,100571.06
2022-10-25T17:20:13.441Z,100572.23
2022-10-25T17:23:20.486Z,100577.11
2022-10-25T17:26:27.198Z,100577.51
2022-10-25T17:29:33.885Z,100580.63
2022-10-25T17:32:40.803Z,100587.80
2022-10-25T17:35:47.569Z,100588.91
2022-10-25T17:38:55.082Z,100591.75
2022-10-25T17:42:02.366Z,100597.94
2022-10-25T17:45:12.645Z,100599.83
2022-10-25T17:48:19.430Z,100599.38
2022-10-25T17:51:26.004Z,100600.25
2022-10-25T17:54:32.828Z,100598.98
2022-10-25T17:57:39.580Z,100602.57
2022-10-25T18:00:46.255Z,100604.58
2022-10-25T18:03:54.161Z,100604.55
2022-10-25T18:07:00.907Z,100606.15
2022-10-25T18:10:08.610Z,100608.20
2022-10-25T18:13:15.282Z,100618.70
2022-10-25T18:16:25.881Z,100617.92
2022-10-25T18:19:32.850Z,100614.50
2022-10-25T18:22:39.439Z,100616.16
2022-10-25T18:25:53.974Z,100612.40
2022-10-25T18:29:01.305Z,100614.29
2022-10-25T18:32:08.072Z,100614.84
2022-10-25T18:35:15.038Z,100616.90
2022-10-25T18:38:21.767Z,100611.92
2022-10-25T18:41:31.010Z,100618.46
2022-10-25T18:44:40.178Z,100620.22
2022-10-25T18:47:49.977Z,100622.45
2022-10-25T18:50:57.641Z,100621.52
2022-10-25T18:54:05.183Z,100622.20
2022-10-25T18:57:13.463Z,100628.64
2022-10-25T19:00:22.617Z,100625.33
2022-10-25T19:03:29.406Z,100631.79
2022-10-25T19:06:36.471Z,100634.92
2022-10-25T19:09:43.164Z,100637.98
2022-10-25T19:12:49.995Z,100640.57
2022-10-25T19:15:59.451Z,100646.95
2022-10-25T19:19:08.391Z,100648.20
2022-10-25T19:22:15.834Z,100651.29
2022-10-25T19:25:23.923Z,100654.02
2022-10-25T19:28:30.954Z,100656.61
2022-10-25T19:31:37.498Z,100657.36
2022-10-25T19:34:44.409Z,100662.95
2022-10-25T19:37:51.524Z,100663.52
2022-10-25T19:41:02.072Z,100672.98
2022-10-25T19:44:08.778Z,100671.52
2022-10-25T19:47:15.699Z,100672.22
2022-10-25T19:50:23.866Z,100667.66
2022-10-25T19:53:30.771Z,100670.55
2022-10-25T19:56:39.187Z,100674.80
2022-10-25T19:59:45.760Z,100676.32
2022-10-25T20:02:52.477Z,100676.92
2022-10-25T20:06:04.999Z,100680.32
2022-10-25T20:09:11.560Z,100678.34
2022-10-25T20:12:18.488Z,100680.81
2022-10-25T20:15:25.115Z,100680.73
2022-10-25T20:18:35.187Z,100682.96
2022-10-25T20:21:41.944Z,100681.46
2022-10-25T20:24:48.745Z,100681.55
2022-10-25T20:27:55.362Z,100683.39
2022-10-25T20:31:07.012Z,100682.70
2022-10-25T20:34:14.174Z,100687.52
2022-10-25T20:37:21.007Z,100695.51
2022-10-25T20:40:27.710Z,100699.25
2022-10-25T20:43:35.370Z,100700.32
2022-10-25T20:46:42.405Z,100698.52
2022-10-25T20:49:49.083Z,100697.30
2022-10-25T20:53:09.826Z,100703.19
2022-10-25T20:56:18.679Z,100707.11
2022-10-25T20:59:25.439Z,100708.81
2022-10-25T21:02:32.251Z,100707.70
2022-10-25T21:05:43.127Z,100701.58
2022-10-25T21:08:49.844Z,100702.49
2022-10-25T21:11:58.394Z,100702.34
2022-10-25T21:15:08.092Z,100704.05
2022-10-25T21:18:18.679Z,100711.14
2022-10-25T21:21:25.231Z,100717.34
2022-10-25T21:24:31.806Z,100719.52
2022-10-25T21:27:38.402Z,100719.52
2022-10-25T21:30:46.025Z,100721.55
2022-10-25T21:33:55.108Z,100715.73
2022-10-25T21:37:04.230Z,100715.26
2022-10-25T21:40:12.237Z,100713.75
2022-10-25T21:43:18.960Z,100710.66
2022-10-25T21:46:27.702Z,100709.42
2022-10-25T21:49:34.424Z,100713.78
2022-10-25T21:52:41.027Z,100714.84
2022-10-25T21:55:47.713Z,100711.55
2022-10-25T21:58:54.317Z,100714.08
2022-10-25T22:02:01.169Z,100719.49
2022-10-25T22:05:08.658Z,100717.59
2022-10-25T22:08:15.415Z,100719.54
2022-10-25T22:11:23.852Z,100716.99
2022-10-25T22:14:30.586Z,100723.85
2022-10-25T22:17:37.329Z,100722.77
2022-10-25T22:20:43.959Z,100723.35
2022-10-25T22:23:50.959Z,100728.52
2022-10-25T22:26:57.782Z,100730.83
2022-10-25T22:30:04.780Z,100731.11
2022-10-25T22:33:11.664Z,100726.30
2022-10-25T22:36:20.563Z,100721.83
2022-10-25T22:39:27.337Z,100721.77
2022-10-25T22:42:33.924Z,100726.72
2022-10-25T22:45:40.549Z,100728.52
2022-10-25T22:48:47.416Z,100726.58
2022-10-25T22:51:54.123Z,100724.21
2022-10-25T22:55:00.881Z,100724.20
2022-10-25T22:58:07.658Z,100731.31
2022-10-25T23:01:17.391Z,100732.92
2022-10-25T23:04:24.012Z,100734.53
2022-10-25T23:07:30.713Z,100733.23
2022-10-25T23:10:37.355Z,100739.08
2022-10-25T23:13:44.762Z,100740.98
2022-10-25T23:16:51.650Z,100743.53
2022-10-25T23:19:58.206Z,100745.31
2022-10-25T23:23:05.050Z,100747.13
2022-10-25T23:26:14.808Z,100746.59
2022-10-25T23:29:21.727Z,100745.77
2022-10-25T23:32:28.508Z,100746.83
2022-10-25T23:35:36.274Z,100749.02
2022-10-25T23:38:43.152Z,100750.75
2022-10-25T23:41:51.901Z,100752.56
2022-10-25T23:44:58.579Z,100752.10
2022-10-25T23:48:05.615Z,100752.52
2022-10-25T23:51:14.211Z,100751.95
2022-10-25T23:54:20.821Z,100753.17
2022-10-25T23:57:27.782Z,100754.16
